Latest Coastal Weather Observations for Gladstone

IDQ60701

Issued at 2:05 am EST Sunday 31 August 2014 (issued every 10 minutes, with the page automatically refreshed every 10 minutes)

About coastal observations | Map of coastal stations | Coastal observations for QLD | Marine services | Other Formats
Station Details ID: 039123 Name: GLADSTONE RADAR Lat: -23.86 Lon: 151.26 Height: 74.5 m
Data from the previous 72 hours. | See also: Recent months at Gladstone
Date/Time
EST
Temp

°C
Wind Pressure Rain
since 9am
mm
Weather Cloud Vis
km
Sea
Height
m
Swell
Dir
 
Speed
knots
Gust
knots
hPa Trend Height
m
Period
s
Dir
31/02:00am 15.6 SSW 4 4 1017.8 - 0.0 - - - - - - -
31/01:30am 16.0 SSW 3 4 1018.0 - 0.0 - - - - - - -
31/01:00am 16.1 WSW 3 4 1018.4 - 0.0 - - - - - - -
31/12:30am 16.4 W 3 4 1018.5 - 0.0 - - - - - - -
31/12:00am 16.2 SW 3 5 1018.7 - 0.0 - - - - - - -
 
Date/Time
EST
Temp

°C
Wind Pressure Rain
since 9am
mm
Weather Cloud Vis
km
Sea
Height
m
Swell
Dir
 
Speed
knots
Gust
knots
hPa Trend Height
m
Period
s
Dir
30/11:30pm 16.2 WSW 4 5 1018.7 - 0.0 - - - - - - -
30/11:00pm 16.9 WNW 5 7 1018.8 - 0.0 - - - - - - -
30/10:30pm 17.6 NNW 6 8 1018.7 - 0.0 - - - - - - -
30/10:00pm 17.5 NW 6 7 1018.8 - 0.0 - - - - - - -
30/09:30pm 18.0 NNW 7 9 1018.8 - 0.0 - - - - - - -
30/09:00pm 17.9 NNW 6 9 1018.8 - 0.0 - - - - - - -
30/08:30pm 17.2 N 3 6 1018.8 - 0.0 - - - - - - -
30/08:00pm 17.7 NNW 5 7 1018.6 - 0.0 - - - - - - -
30/07:30pm 18.2 NNW 6 10 1018.1 - 0.0 - - - - - - -
30/07:00pm 17.8 N 4 6 1017.7 - 0.0 - - - - - - -
30/06:30pm 18.5 NNW 5 9 1016.9 - 0.0 - - - - - - -
30/06:00pm 18.5 N 5 8 1016.5 - 0.0 - - - - - - -
30/05:30pm 18.9 NNE 4 9 1016.2 - 0.0 - - - - - - -
30/05:00pm 19.5 NNE 7 11 1016.0 - 0.0 - - - - - - -
30/04:30pm 20.1 NE 9 13 1015.8 - 0.0 - - - - - - -
30/04:00pm 21.2 NE 9 13 1015.8 - 0.0 - - - - - - -
30/03:30pm 22.1 NNE 8 15 1015.6 - 0.0 - - - - - - -
30/03:00pm 22.4 NE 9 15 1015.7 - 0.0 - - - - - - -
30/02:30pm 23.0 NE 11 16 1015.9 - 0.0 - - - - - - -
30/02:00pm 24.4 NE 9 15 1016.2 - 0.0 - - - - - - -
30/01:30pm 25.6 NNE 7 13 1016.8 - 0.0 - - - - - - -
30/01:00pm 25.6 W 4 8 1017.3 - 0.0 - - - - - - -
30/12:30pm 24.2 WNW 5 8 1018.0 - 0.0 - - - - - - -
30/12:00pm 24.3 WNW 3 5 1018.8 - 0.0 - - - - - - -
30/11:30am 23.8 WSW 3 5 1019.4 - 0.0 - - - - - - -
30/11:00am 23.1 SW 4 7 1019.9 - 0.0 - - - - - - -
30/10:30am 21.7 WSW 4 6 1020.3 - 0.0 - - - - - - -
30/10:00am 22.1 WSW 4 6 1020.6 - 0.0 - - - - - - -
30/09:30am 20.8 SW 4 8 1020.9 - 0.0 - - - - - - -
30/09:00am 18.9 SSW 6 10 1021.0 - 0.0 - - - - - - -
30/08:30am 17.7 SSW 5 10 1020.9 - 0.0 - - - - - - -
30/08:00am 16.7 SW 6 8 1020.8 - 0.0 - - - - - - -
30/07:30am 14.4 SW 5 7 1020.8 - 0.0 - - - - - - -
30/07:00am 13.8 SSW 6 9 1020.6 - 0.0 - - - - - - -
30/06:30am 14.0 SSW 6 10 1020.3 - 0.0 - - - - - - -
30/06:00am 13.5 SSW 6 9 1020.2 - 0.0 - - - - - - -
30/05:30am 13.3 SSW 6 9 1019.9 - 0.0 - - - - - - -
30/05:00am 13.3 SSW 7 9 1019.7 - 0.0 - - - - - - -
30/04:30am 14.5 S 5 7 1019.5 - 0.0 - - - - - - -
30/04:00am 14.6 S 4 5 1019.4 - 0.0 - - - - - - -
30/03:30am 15.8 S 6 8 1019.4 - 0.0 - - - - - - -
30/03:00am 15.7 S 6 8 1019.6 - 0.0 - - - - - - -
30/02:30am 15.5 S 6 8 1019.8 - 0.0 - - - - - - -
30/02:00am 16.0 S 8 10 1019.7 - 0.0 - - - - - - -
30/01:30am 16.0 S 8 10 1019.8 - 0.0 - - - - - - -
30/01:00am 16.1 S 7 9 1019.9 - 0.0 - - - - - - -
30/12:30am 16.5 S 7 9 1020.0 - 0.0 - - - - - - -
30/12:00am 16.3 SSE 7 9 1019.9 - 0.0 - - - - - - -
 
Date/Time
EST
Temp

°C
Wind Pressure Rain
since 9am
mm
Weather Cloud Vis
km
Sea
Height
m
Swell
Dir
 
Speed
knots
Gust
knots
hPa Trend Height
m
Period
s
Dir
29/11:30pm 16.6 SSE 6 7 1019.8 - 0.0 - - - - - - -
29/11:00pm 16.8 SSE 5 7 1019.9 - 0.0 - - - - - - -
29/10:30pm 17.1 ESE 4 5 1019.9 - 0.0 - - - - - - -
29/10:00pm 17.0 E 6 7 1019.9 - 0.0 - - - - - - -
29/09:30pm 17.2 E 6 7 1020.1 - 0.0 - - - - - - -
29/09:00pm 17.1 ENE 5 7 1020.4 - 0.0 - - - - - - -
29/08:30pm 17.1 ENE 4 5 1020.7 - 0.0 - - - - - - -
29/08:00pm 17.5 E 5 6 1020.5 - 0.0 - - - - - - -
29/07:30pm 17.6 E 6 9 1020.0 - 0.0 - - - - - - -
29/07:00pm 17.6 ENE 7 9 1020.1 - 0.0 - - - - - - -
29/06:30pm 17.6 ENE 6 10 1019.6 - 0.0 - - - - - - -
29/06:00pm 17.9 ENE 7 11 1019.3 - 0.0 - - - - - - -
29/05:30pm 18.5 ENE 7 9 1019.0 - 0.0 - - - - - - -
29/05:00pm 19.3 ENE 9 13 1018.4 - 0.0 - - - - - - -
29/04:30pm 20.0 ENE 11 15 1018.6 - 0.0 - - - - - - -
29/04:00pm 21.3 ENE 10 14 1018.6 - 0.0 - - - - - - -
29/03:30pm 21.7 ENE 11 15 1018.7 - 0.0 - - - - - - -
29/03:00pm 22.4 ENE 9 13 1018.8 - 0.0 - - - - - - -
29/02:30pm 22.9 ENE 12 16 1018.9 - 0.0 - - - - - - -
29/02:00pm 23.5 NE 10 15 1019.0 - 0.0 - - - - - - -
29/01:30pm 23.8 ENE 9 13 1019.2 - 0.0 - - - - - - -
29/01:00pm 24.3 NE 9 14 1019.7 - 0.0 - - - - - - -
29/12:30pm 24.3 NE 10 16 1020.2 - 0.0 - - - - - - -
29/12:00pm 24.2 NE 9 13 1020.6 - 0.0 - - - - - - -
29/11:30am 24.3 ENE 7 12 1021.2 - 0.0 - - - - - - -
29/11:00am 22.6 ESE 8 13 1022.0 - 0.0 - - - - - - -
29/10:30am 23.0 E 7 11 1022.2 - 0.0 - - - - - - -
29/10:00am 21.2 SE 10 16 1022.4 - 0.0 - - - - - - -
29/09:30am 20.2 ESE 9 16 1022.4 - 0.0 - - - - - - -
29/09:00am 19.9 SE 11 18 1022.4 - 0.0 - - - - - - -
29/08:30am 19.1 SE 10 17 1022.2 - 0.0 - - - - - - -
29/08:00am 17.6 SE 13 17 1022.0 - 0.0 - - - - - - -
29/07:30am 17.0 SE 11 18 1021.8 - 0.0 - - - - - - -
29/07:00am 16.4 SE 9 16 1021.6 - 0.0 - - - - - - -
29/06:30am 15.7 SSE 11 19 1021.0 - 0.0 - - - - - - -
29/06:00am 15.3 SE 12 19 1020.6 - 0.0 - - - - - - -
29/05:30am 15.2 SE 12 18 1020.4 - 0.0 - - - - - - -
29/05:00am 15.5 SE 13 20 1020.3 - 0.0 - - - - - - -
29/04:30am 15.5 SE 13 18 1020.0 - 0.0 - - - - - - -
29/04:00am 15.5 SE 11 15 1020.1 - 0.0 - - - - - - -
29/03:30am 15.4 SE 9 12 1020.2 - 0.0 - - - - - - -
29/03:00am 15.8 SSE 9 15 1020.0 - 0.0 - - - - - - -
29/02:30am 15.7 SE 8 12 1020.2 - 0.0 - - - - - - -
29/02:00am 16.0 SE 8 13 1020.1 - 0.0 - - - - - - -
29/01:30am 16.4 SE 9 12 1020.1 - 0.0 - - - - - - -
29/01:00am 17.1 SE 6 7 1020.2 - 0.0 - - - - - - -
29/12:30am 17.1 E 4 7 1020.3 - 0.0 - - - - - - -
29/12:00am 17.3 ENE 1 4 1020.5 - 0.0 - - - - - - -
 
Date/Time
EST
Temp

°C
Wind Pressure Rain
since 9am
mm
Weather Cloud Vis
km
Sea
Height
m
Swell
Dir
 
Speed
knots
Gust
knots
hPa Trend Height
m
Period
s
Dir
28/11:30pm 17.6 SSE 4 5 1020.3 - 0.0 - - - - - - -
28/11:00pm 17.6 SE 3 5 1020.1 - 0.0 - - - - - - -
28/10:30pm 17.3 NE 1 4 1020.1 - 0.0 - - - - - - -
28/10:00pm 17.8 NE 5 7 1020.0 - 0.0 - - - - - - -
28/09:30pm 17.8 NNE 3 5 1019.9 - 0.0 - - - - - - -
28/09:00pm 17.6 WNW 4 4 1019.9 - 0.0 - - - - - - -
28/08:30pm 17.8 N 2 3 1019.7 - 0.0 - - - - - - -
28/08:00pm 17.5 NNE 4 5 1019.4 - 0.0 - - - - - - -
28/07:30pm 17.3 NE 4 5 1019.1 - 0.0 - - - - - - -
28/07:00pm 17.8 NNE 4 5 1018.7 - 0.0 - - - - - - -
28/06:30pm 17.9 NNE 4 6 1018.1 - 0.0 - - - - - - -
28/06:00pm 18.6 NE 5 8 1017.7 - 0.0 - - - - - - -
28/05:30pm 19.3 NE 5 8 1017.4 - 0.0 - - - - - - -
28/05:00pm 19.4 NE 6 10 1017.0 - 0.0 - - - - - - -
28/04:30pm 20.0 NE 7 11 1016.6 - 0.0 - - - - - - -
28/04:00pm 21.4 NE 8 12 1016.1 - 0.0 - - - - - - -
28/03:30pm 22.8 NE 9 13 1015.8 - 0.0 - - - - - - -
28/03:00pm 23.7 NE 8 11 1015.5 - 0.0 - - - - - - -
28/02:30pm 24.2 NE 8 11 1015.5 - 0.0 - - - - - - -
28/02:00pm 25.2 NE 6 10 1015.6 - 0.0 - - - - - - -
28/01:30pm 23.6 NNE 5 8 1015.6 - 0.0 - - - - - - -
28/01:00pm 24.9 NE 7 12 1015.6 - 0.0 - - - - - - -
28/12:30pm 24.4 NE 11 15 1015.8 - 0.0 - - - - - - -
28/12:00pm 25.1 E 8 14 1016.3 - 0.0 - - - - - - -
28/11:30am 22.7 E 6 11 1016.9 - 0.0 - - - - - - -
28/11:00am 22.5 E 9 13 1017.3 - 0.0 - - - - - - -
28/10:30am 21.5 SE 9 15 1017.7 - 0.0 - - - - - - -
28/10:00am 20.1 SSE 6 11 1018.0 - 0.0 - - - - - - -
28/09:30am 18.6 S 9 16 1018.3 - 0.0 - - - - - - -
28/09:00am 18.3 S 7 18 1017.9 - 0.0 - - - - - - -
28/08:30am 16.9 S 7 12 1017.8 - 0.0 - - - - - - -
28/08:00am 15.9 SSW 6 12 1017.7 - 0.0 - - - - - - -
28/07:30am 14.4 S 4 7 1017.7 - 0.0 - - - - - - -
28/07:00am 13.2 SW 4 6 1017.4 - 0.0 - - - - - - -
28/06:30am 12.3 CALM 0 3 1017.3 - 0.0 - - - - - - -
28/06:00am 12.0 SW 4 6 1016.8 - 0.0 - - - - - - -
28/05:30am 12.8 SSW 6 10 1016.5 - 0.0 - - - - - - -
28/05:00am 13.6 SSW 7 11 1016.2 - 0.0 - - - - - - -
28/04:30am 12.7 SSW 5 7 1016.1 - 0.0 - - - - - - -
28/04:00am 12.5 SW 4 7 1016.1 - 0.0 - - - - - - -
28/03:30am 12.8 SSW 5 8 1016.0 - 0.0 - - - - - - -
28/03:00am 13.3 SSW 5 7 1016.3 - 0.0 - - - - - - -
28/02:30am 12.5 SW 4 5 1016.3 - 0.0 - - - - - - -

Other Formats:

Comma delimited format used in spreadsheet applications
http://www.bom.gov.au/fwo/IDQ60701/IDQ60701.94380.axf

JavaScript Object Notation format (JSON) in row-major order
http://www.bom.gov.au/fwo/IDQ60701/IDQ60701.94380.json